sensor_id;sensor_type;location;lat;lon;timestamp;temperature;humidity
22984;DHT22;11658;48.908;9.140;2023-03-17T04:02:47;5.60;99.90
22984;DHT22;11658;48.908;9.140;2023-03-17T04:05:15;5.50;99.90
22984;DHT22;11658;48.908;9.140;2023-03-17T04:07:41;5.60;99.90
22984;DHT22;11658;48.908;9.140;2023-03-17T04:10:09;5.60;99.90
22984;DHT22;11658;48.908;9.140;2023-03-17T04:12:34;5.60;99.90
22984;DHT22;11658;48.908;9.140;2023-03-17T04:15:00;5.50;99.90
22984;DHT22;11658;48.908;9.140;2023-03-17T04:17:25;5.40;99.90
22984;DHT22;11658;48.908;9.140;2023-03-17T04:19:51;5.40;99.90
22984;DHT22;11658;48.908;9.140;2023-03-17T04:22:16;5.30;99.90
22984;DHT22;11658;48.908;9.140;2023-03-17T04:24:42;5.30;99.90
22984;DHT22;11658;48.908;9.140;2023-03-17T04:27:08;5.40;99.90
22984;DHT22;11658;48.908;9.140;2023-03-17T04:29:34;5.30;99.90
22984;DHT22;11658;48.908;9.140;2023-03-17T04:32:00;5.20;99.90
22984;DHT22;11658;48.908;9.140;2023-03-17T04:34:26;5.30;99.90
22984;DHT22;11658;48.908;9.140;2023-03-17T04:36:52;5.20;99.90
22984;DHT22;11658;48.908;9.140;2023-03-17T04:39:18;5.20;99.90
22984;DHT22;11658;48.908;9.140;2023-03-17T04:41:44;5.20;99.90
22984;DHT22;11658;48.908;9.140;2023-03-17T04:44:11;5.10;99.90
22984;DHT22;11658;48.908;9.140;2023-03-17T04:46:37;5.20;99.90
22984;DHT22;11658;48.908;9.140;2023-03-17T04:49:03;5.20;99.90
22984;DHT22;11658;48.908;9.140;2023-03-17T04:51:29;5.10;99.90
22984;DHT22;11658;48.908;9.140;2023-03-17T04:53:55;5.10;99.90
22984;DHT22;11658;48.908;9.140;2023-03-17T04:56:21;5.10;99.90
22984;DHT22;11658;48.908;9.140;2023-03-17T04:58:47;5.10;99.90
22984;DHT22;11658;48.908;9.140;2023-03-17T05:01:12;5.20;99.90
22984;DHT22;11658;48.908;9.140;2023-03-17T05:03:38;5.10;99.90
22984;DHT22;11658;48.908;9.140;2023-03-17T05:06:04;5.10;99.90
22984;DHT22;11658;48.908;9.140;2023-03-17T05:08:30;5.00;99.90
22984;DHT22;11658;48.908;9.140;2023-03-17T05:10:56;5.00;99.90
22984;DHT22;11658;48.908;9.140;2023-03-17T05:13:23;5.00;99.90
22984;DHT22;11658;48.908;9.140;2023-03-17T05:15:50;5.00;99.90
22984;DHT22;11658;48.908;9.140;2023-03-17T05:18:16;5.00;99.90
22984;DHT22;11658;48.908;9.140;2023-03-17T05:20:42;5.00;99.90
22984;DHT22;11658;48.908;9.140;2023-03-17T05:23:08;5.10;99.90
22984;DHT22;11658;48.908;9.140;2023-03-17T05:25:34;5.10;99.90
22984;DHT22;11658;48.908;9.140;2023-03-17T05:28:00;5.00;99.90
22984;DHT22;11658;48.908;9.140;2023-03-17T05:30:26;5.00;99.90
22984;DHT22;11658;48.908;9.140;2023-03-17T05:32:52;4.90;99.90
22984;DHT22;11658;48.908;9.140;2023-03-17T05:35:17;5.00;99.90
22984;DHT22;11658;48.908;9.140;2023-03-17T05:37:43;4.90;99.90
22984;DHT22;11658;48.908;9.140;2023-03-17T05:40:11;4.90;99.90
22984;DHT22;11658;48.908;9.140;2023-03-17T05:42:37;4.90;99.90
22984;DHT22;11658;48.908;9.140;2023-03-17T05:45:03;4.90;99.90
22984;DHT22;11658;48.908;9.140;2023-03-17T05:47:30;5.00;99.90
22984;DHT22;11658;48.908;9.140;2023-03-17T05:49:58;5.10;99.90
22984;DHT22;11658;48.908;9.140;2023-03-17T05:52:24;5.10;99.90
22984;DHT22;11658;48.908;9.140;2023-03-17T05:54:49;5.00;99.90
22984;DHT22;11658;48.908;9.140;2023-03-17T05:57:16;5.00;99.90
22984;DHT22;11658;48.908;9.140;2023-03-17T05:59:42;5.10;99.90
22984;DHT22;11658;48.908;9.140;2023-03-17T06:02:08;5.10;99.90
22984;DHT22;11658;48.908;9.140;2023-03-17T06:04:35;5.10;99.90
22984;DHT22;11658;48.908;9.140;2023-03-17T06:07:01;5.10;99.90
22984;DHT22;11658;48.908;9.140;2023-03-17T06:09:27;5.10;99.90
22984;DHT22;11658;48.908;9.140;2023-03-17T06:11:52;5.20;99.90
22984;DHT22;11658;48.908;9.140;2023-03-17T06:14:18;5.20;99.90
22984;DHT22;11658;48.908;9.140;2023-03-17T06:16:44;5.20;99.90
22984;DHT22;11658;48.908;9.140;2023-03-17T06:19:10;5.30;99.90
22984;DHT22;11658;48.908;9.140;2023-03-17T06:21:36;5.40;99.90
22984;DHT22;11658;48.908;9.140;2023-03-17T06:24:02;5.50;99.90
22984;DHT22;11658;48.908;9.140;2023-03-17T06:26:27;5.60;99.90
22984;DHT22;11658;48.908;9.140;2023-03-17T06:28:53;5.60;99.90
22984;DHT22;11658;48.908;9.140;2023-03-17T06:31:19;5.70;99.90
22984;DHT22;11658;48.908;9.140;2023-03-17T06:33:44;5.70;99.90
22984;DHT22;11658;48.908;9.140;2023-03-17T06:36:10;5.70;99.90
22984;DHT22;11658;48.908;9.140;2023-03-17T06:38:36;5.70;99.90
22984;DHT22;11658;48.908;9.140;2023-03-17T06:41:01;5.90;99.90
22984;DHT22;11658;48.908;9.140;2023-03-17T06:43:27;6.00;99.90
22984;DHT22;11658;48.908;9.140;2023-03-17T06:45:53;6.10;99.90
22984;DHT22;11658;48.908;9.140;2023-03-17T06:48:19;6.30;99.90
22984;DHT22;11658;48.908;9.140;2023-03-17T06:50:45;6.40;99.90
22984;DHT22;11658;48.908;9.140;2023-03-17T06:53:14;6.50;99.90
22984;DHT22;11658;48.908;9.140;2023-03-17T06:55:40;6.50;99.90
22984;DHT22;11658;48.908;9.140;2023-03-17T06:58:06;6.50;99.90
22984;DHT22;11658;48.908;9.140;2023-03-17T07:00:33;6.60;99.90
22984;DHT22;11658;48.908;9.140;2023-03-17T07:02:59;6.70;99.90
22984;DHT22;11658;48.908;9.140;2023-03-17T07:05:25;6.70;99.90
22984;DHT22;11658;48.908;9.140;2023-03-17T07:07:51;6.80;99.90
22984;DHT22;11658;48.908;9.140;2023-03-17T07:10:17;6.90;99.90
22984;DHT22;11658;48.908;9.140;2023-03-17T07:12:43;7.10;99.90
22984;DHT22;11658;48.908;9.140;2023-03-17T07:15:09;7.30;99.90
22984;DHT22;11658;48.908;9.140;2023-03-17T07:17:36;7.40;99.90
22984;DHT22;11658;48.908;9.140;2023-03-17T07:20:02;7.50;99.90
22984;DHT22;11658;48.908;9.140;2023-03-17T07:22:28;7.70;99.90
22984;DHT22;11658;48.908;9.140;2023-03-17T07:24:54;7.80;99.90
22984;DHT22;11658;48.908;9.140;2023-03-17T07:27:21;8.00;99.90
22984;DHT22;11658;48.908;9.140;2023-03-17T07:29:49;8.20;99.90
22984;DHT22;11658;48.908;9.140;2023-03-17T07:32:15;8.30;99.90
22984;DHT22;11658;48.908;9.140;2023-03-17T07:34:41;8.60;99.90
22984;DHT22;11658;48.908;9.140;2023-03-17T07:37:07;8.90;99.90
22984;DHT22;11658;48.908;9.140;2023-03-17T07:39:32;9.10;99.90
22984;DHT22;11658;48.908;9.140;2023-03-17T07:41:58;9.20;99.90
22984;DHT22;11658;48.908;9.140;2023-03-17T07:44:24;9.30;99.90
22984;DHT22;11658;48.908;9.140;2023-03-17T07:46:50;9.50;99.90
22984;DHT22;11658;48.908;9.140;2023-03-17T07:49:17;9.60;99.90
22984;DHT22;11658;48.908;9.140;2023-03-17T07:51:42;9.60;99.90
22984;DHT22;11658;48.908;9.140;2023-03-17T07:54:09;9.60;99.90
22984;DHT22;11658;48.908;9.140;2023-03-17T07:56:37;9.60;99.90
22984;DHT22;11658;48.908;9.140;2023-03-17T07:59:03;9.40;99.90
22984;DHT22;11658;48.908;9.140;2023-03-17T08:01:29;9.20;99.90
22984;DHT22;11658;48.908;9.140;2023-03-17T08:03:56;9.30;99.90
22984;DHT22;11658;48.908;9.140;2023-03-17T08:06:22;9.40;99.90
22984;DHT22;11658;48.908;9.140;2023-03-17T08:08:51;9.40;99.90
22984;DHT22;11658;48.908;9.140;2023-03-17T08:11:16;9.30;99.90
22984;DHT22;11658;48.908;9.140;2023-03-17T08:13:43;9.30;99.90
22984;DHT22;11658;48.908;9.140;2023-03-17T08:16:08;9.40;99.90
22984;DHT22;11658;48.908;9.140;2023-03-17T08:18:34;9.60;99.90
22984;DHT22;11658;48.908;9.140;2023-03-17T08:21:00;9.70;99.90
22984;DHT22;11658;48.908;9.140;2023-03-17T08:23:26;9.80;99.90
22984;DHT22;11658;48.908;9.140;2023-03-17T08:25:56;9.90;99.90
22984;DHT22;11658;48.908;9.140;2023-03-17T08:28:22;9.90;99.90
22984;DHT22;11658;48.908;9.140;2023-03-17T08:30:48;10.00;99.90
22984;DHT22;11658;48.908;9.140;2023-03-17T08:33:14;10.20;99.90
22984;DHT22;11658;48.908;9.140;2023-03-17T08:35:41;10.40;99.90
22984;DHT22;11658;48.908;9.140;2023-03-17T08:38:07;10.80;99.90
22984;DHT22;11658;48.908;9.140;2023-03-17T08:40:33;10.80;99.90
22984;DHT22;11658;48.908;9.140;2023-03-17T08:42:59;10.90;99.90
22984;DHT22;11658;48.908;9.140;2023-03-17T08:45:25;11.10;99.90
22984;DHT22;11658;48.908;9.140;2023-03-17T08:47:51;11.20;99.90
22984;DHT22;11658;48.908;9.140;2023-03-17T08:50:20;11.30;99.90
22984;DHT22;11658;48.908;9.140;2023-03-17T08:52:46;11.30;99.90
22984;DHT22;11658;48.908;9.140;2023-03-17T08:55:14;11.20;99.90
22984;DHT22;11658;48.908;9.140;2023-03-17T08:57:41;11.30;99.90
22984;DHT22;11658;48.908;9.140;2023-03-17T09:00:08;11.50;99.90
22984;DHT22;11658;48.908;9.140;2023-03-17T09:02:40;11.60;99.90
22984;DHT22;11658;48.908;9.140;2023-03-17T09:05:08;11.70;99.90
22984;DHT22;11658;48.908;9.140;2023-03-17T09:07:35;11.60;99.90
22984;DHT22;11658;48.908;9.140;2023-03-17T09:10:00;11.60;99.90
22984;DHT22;11658;48.908;9.140;2023-03-17T09:12:29;11.80;99.90
22984;DHT22;11658;48.908;9.140;2023-03-17T09:14:55;12.00;99.90
22984;DHT22;11658;48.908;9.140;2023-03-17T09:17:22;12.00;99.90
22984;DHT22;11658;48.908;9.140;2023-03-17T09:19:48;12.10;99.90
22984;DHT22;11658;48.908;9.140;2023-03-17T09:22:15;12.30;99.90
22984;DHT22;11658;48.908;9.140;2023-03-17T09:24:42;12.40;99.90
22984;DHT22;11658;48.908;9.140;2023-03-17T09:27:07;12.40;99.90
22984;DHT22;11658;48.908;9.140;2023-03-17T09:29:33;12.60;99.90
22984;DHT22;11658;48.908;9.140;2023-03-17T09:31:59;12.60;99.90
22984;DHT22;11658;48.908;9.140;2023-03-17T09:34:25;12.80;99.90
22984;DHT22;11658;48.908;9.140;2023-03-17T09:36:52;12.90;99.90
22984;DHT22;11658;48.908;9.140;2023-03-17T09:39:18;12.90;99.90
22984;DHT22;11658;48.908;9.140;2023-03-17T09:49:40;13.40;99.90
22984;DHT22;11658;48.908;9.140;2023-03-17T09:52:14;13.50;99.90
22984;DHT22;11658;48.908;9.140;2023-03-17T09:54:41;13.40;99.90
22984;DHT22;11658;48.908;9.140;2023-03-17T09:57:27;13.50;99.90
22984;DHT22;11658;48.908;9.140;2023-03-17T09:59:59;13.70;99.90
22984;DHT22;11658;48.908;9.140;2023-03-17T10:02:28;13.90;99.90
22984;DHT22;11658;48.908;9.140;2023-03-17T10:04:55;14.00;99.90
22984;DHT22;11658;48.908;9.140;2023-03-17T10:07:26;14.20;99.90
22984;DHT22;11658;48.908;9.140;2023-03-17T10:10:04;14.30;99.90
22984;DHT22;11658;48.908;9.140;2023-03-17T10:12:48;14.50;99.90
22984;DHT22;11658;48.908;9.140;2023-03-17T10:17:45;14.70;99.90
22984;DHT22;11658;48.908;9.140;2023-03-17T10:20:27;14.80;99.90
22984;DHT22;11658;48.908;9.140;2023-03-17T10:25:28;15.10;99.90
22984;DHT22;11658;48.908;9.140;2023-03-17T10:28:27;14.80;99.90
22984;DHT22;11658;48.908;9.140;2023-03-17T10:33:49;15.00;99.90
22984;DHT22;11658;48.908;9.140;2023-03-17T10:36:37;15.00;99.90
22984;DHT22;11658;48.908;9.140;2023-03-17T10:39:05;15.10;99.90
22984;DHT22;11658;48.908;9.140;2023-03-17T10:41:37;15.00;99.90
22984;DHT22;11658;48.908;9.140;2023-03-17T10:44:09;15.30;99.90
22984;DHT22;11658;48.908;9.140;2023-03-17T10:46:37;15.70;99.90
22984;DHT22;11658;48.908;9.140;2023-03-17T10:49:08;15.90;99.90
22984;DHT22;11658;48.908;9.140;2023-03-17T10:51:36;16.00;99.90
22984;DHT22;11658;48.908;9.140;2023-03-17T10:54:15;16.40;99.90
22984;DHT22;11658;48.908;9.140;2023-03-17T10:56:42;16.40;99.90
22984;DHT22;11658;48.908;9.140;2023-03-17T10:59:18;16.40;99.90
22984;DHT22;11658;48.908;9.140;2023-03-17T11:02:11;16.60;99.90
22984;DHT22;11658;48.908;9.140;2023-03-17T11:04:40;16.80;99.90
22984;DHT22;11658;48.908;9.140;2023-03-17T11:07:18;17.00;99.90
22984;DHT22;11658;48.908;9.140;2023-03-17T11:09:49;17.40;99.90
22984;DHT22;11658;48.908;9.140;2023-03-17T11:12:25;17.80;99.90
22984;DHT22;11658;48.908;9.140;2023-03-17T11:14:59;18.10;99.90
22984;DHT22;11658;48.908;9.140;2023-03-17T11:23:01;17.40;99.90
22984;DHT22;11658;48.908;9.140;2023-03-17T11:25:30;17.10;99.90
22984;DHT22;11658;48.908;9.140;2023-03-17T11:28:18;17.00;99.90
22984;DHT22;11658;48.908;9.140;2023-03-17T11:30:57;17.00;99.90
22984;DHT22;11658;48.908;9.140;2023-03-17T11:33:45;17.00;99.90
22984;DHT22;11658;48.908;9.140;2023-03-17T11:39:25;17.30;99.90
22984;DHT22;11658;48.908;9.140;2023-03-17T11:44:36;17.60;99.90
22984;DHT22;11658;48.908;9.140;2023-03-17T11:55:37;17.90;99.90
22984;DHT22;11658;48.908;9.140;2023-03-17T11:58:09;18.00;99.90
22984;DHT22;11658;48.908;9.140;2023-03-17T12:00:46;18.00;99.90
22984;DHT22;11658;48.908;9.140;2023-03-17T12:03:33;18.30;99.90
22984;DHT22;11658;48.908;9.140;2023-03-17T12:06:06;18.60;99.90
22984;DHT22;11658;48.908;9.140;2023-03-17T12:08:44;18.90;99.90
22984;DHT22;11658;48.908;9.140;2023-03-17T12:11:19;19.10;99.90
22984;DHT22;11658;48.908;9.140;2023-03-17T12:14:13;19.60;99.90
22984;DHT22;11658;48.908;9.140;2023-03-17T12:16:57;18.70;99.90
22984;DHT22;11658;48.908;9.140;2023-03-17T12:22:27;18.60;99.90
22984;DHT22;11658;48.908;9.140;2023-03-17T12:27:55;18.40;99.90
22984;DHT22;11658;48.908;9.140;2023-03-17T12:30:29;18.20;99.90
22984;DHT22;11658;48.908;9.140;2023-03-17T12:35:41;18.20;99.90
22984;DHT22;11658;48.908;9.140;2023-03-17T12:46:58;18.40;99.90
22984;DHT22;11658;48.908;9.140;2023-03-17T12:51:53;18.60;99.90
22984;DHT22;11658;48.908;9.140;2023-03-17T12:54:31;18.20;99.40
22984;DHT22;11658;48.908;9.140;2023-03-17T12:57:17;18.60;99.90
22984;DHT22;11658;48.908;9.140;2023-03-17T12:59:47;18.70;99.90
22984;DHT22;11658;48.908;9.140;2023-03-17T13:04:55;18.80;99.90
22984;DHT22;11658;48.908;9.140;2023-03-17T13:07:36;18.90;99.90
22984;DHT22;11658;48.908;9.140;2023-03-17T13:17:46;18.80;99.90
22984;DHT22;11658;48.908;9.140;2023-03-17T13:20:16;18.90;99.80
22984;DHT22;11658;48.908;9.140;2023-03-17T13:46:43;18.80;98.50
22984;DHT22;11658;48.908;9.140;2023-03-17T13:52:01;18.90;97.70
22984;DHT22;11658;48.908;9.140;2023-03-17T13:54:29;18.90;98.50
22984;DHT22;11658;48.908;9.140;2023-03-17T13:56:58;18.70;98.10
22984;DHT22;11658;48.908;9.140;2023-03-17T14:02:19;18.90;98.90
22984;DHT22;11658;48.908;9.140;2023-03-17T14:04:54;18.80;98.50
22984;DHT22;11658;48.908;9.140;2023-03-17T14:07:25;18.70;98.80
22984;DHT22;11658;48.908;9.140;2023-03-17T14:09:57;18.90;99.00
22984;DHT22;11658;48.908;9.140;2023-03-17T14:12:42;19.00;99.10
22984;DHT22;11658;48.908;9.140;2023-03-17T14:15:31;19.00;98.60
22984;DHT22;11658;48.908;9.140;2023-03-17T14:18:13;18.90;97.90
22984;DHT22;11658;48.908;9.140;2023-03-17T14:20:39;18.80;98.10
22984;DHT22;11658;48.908;9.140;2023-03-17T14:23:17;18.70;98.60
22984;DHT22;11658;48.908;9.140;2023-03-17T14:25:43;18.80;98.80
22984;DHT22;11658;48.908;9.140;2023-03-17T14:28:19;18.90;99.00
22984;DHT22;11658;48.908;9.140;2023-03-17T14:31:05;19.00;98.70
22984;DHT22;11658;48.908;9.140;2023-03-17T14:33:40;19.10;98.40
22984;DHT22;11658;48.908;9.140;2023-03-17T14:36:09;19.20;98.30
22984;DHT22;11658;48.908;9.140;2023-03-17T14:38:37;19.10;98.80
22984;DHT22;11658;48.908;9.140;2023-03-17T14:43:41;19.30;98.90
22984;DHT22;11658;48.908;9.140;2023-03-17T14:46:43;19.40;98.70
22984;DHT22;11658;48.908;9.140;2023-03-17T14:49:18;19.20;98.00
22984;DHT22;11658;48.908;9.140;2023-03-17T14:51:46;19.20;98.30
22984;DHT22;11658;48.908;9.140;2023-03-17T14:54:32;19.20;98.40
22984;DHT22;11658;48.908;9.140;2023-03-17T14:57:04;19.30;98.10
22984;DHT22;11658;48.908;9.140;2023-03-17T14:59:37;19.20;98.60
22984;DHT22;11658;48.908;9.140;2023-03-17T15:02:31;19.10;98.80
22984;DHT22;11658;48.908;9.140;2023-03-17T15:07:45;19.10;99.00
22984;DHT22;11658;48.908;9.140;2023-03-17T15:10:15;19.10;98.80
22984;DHT22;11658;48.908;9.140;2023-03-17T15:12:41;19.20;98.50
22984;DHT22;11658;48.908;9.140;2023-03-17T15:15:30;19.20;98.70
22984;DHT22;11658;48.908;9.140;2023-03-17T15:17:58;19.30;98.40
22984;DHT22;11658;48.908;9.140;2023-03-17T15:20:27;19.20;98.40
22984;DHT22;11658;48.908;9.140;2023-03-17T15:25:26;19.20;98.90
22984;DHT22;11658;48.908;9.140;2023-03-17T15:27:57;19.20;99.20
22984;DHT22;11658;48.908;9.140;2023-03-17T15:30:23;19.20;99.30
22984;DHT22;11658;48.908;9.140;2023-03-17T15:32:57;19.10;99.10
22984;DHT22;11658;48.908;9.140;2023-03-17T15:35:23;19.20;99.90
22984;DHT22;11658;48.908;9.140;2023-03-17T15:37:49;19.10;99.70
22984;DHT22;11658;48.908;9.140;2023-03-17T15:40:15;19.00;99.90
22984;DHT22;11658;48.908;9.140;2023-03-17T15:42:41;19.00;99.90
22984;DHT22;11658;48.908;9.140;2023-03-17T15:45:07;19.00;99.80
22984;DHT22;11658;48.908;9.140;2023-03-17T15:47:35;19.00;99.90
22984;DHT22;11658;48.908;9.140;2023-03-17T15:50:16;19.00;99.90
22984;DHT22;11658;48.908;9.140;2023-03-17T15:52:43;18.80;99.50
22984;DHT22;11658;48.908;9.140;2023-03-17T15:55:18;18.70;99.90
22984;DHT22;11658;48.908;9.140;2023-03-17T15:57:45;18.70;99.90
22984;DHT22;11658;48.908;9.140;2023-03-17T16:00:15;18.60;99.90
22984;DHT22;11658;48.908;9.140;2023-03-17T16:02:42;18.40;99.90
22984;DHT22;11658;48.908;9.140;2023-03-17T16:05:17;18.40;99.90
22984;DHT22;11658;48.908;9.140;2023-03-17T16:07:43;18.30;99.90
22984;DHT22;11658;48.908;9.140;2023-03-17T16:12:46;18.00;99.90
22984;DHT22;11658;48.908;9.140;2023-03-17T16:15:23;17.70;99.90
22984;DHT22;11658;48.908;9.140;2023-03-17T16:17:52;17.50;99.90
22984;DHT22;11658;48.908;9.140;2023-03-17T16:20:32;17.50;99.90
22984;DHT22;11658;48.908;9.140;2023-03-17T16:23:05;17.30;99.90
22984;DHT22;11658;48.908;9.140;2023-03-17T16:25:32;17.30;99.90
22984;DHT22;11658;48.908;9.140;2023-03-17T16:27:59;17.20;99.90
22984;DHT22;11658;48.908;9.140;2023-03-17T16:30:28;17.00;99.90
22984;DHT22;11658;48.908;9.140;2023-03-17T16:33:00;16.70;99.90
22984;DHT22;11658;48.908;9.140;2023-03-17T16:35:26;16.50;99.90
22984;DHT22;11658;48.908;9.140;2023-03-17T16:37:52;16.10;99.90
22984;DHT22;11658;48.908;9.140;2023-03-17T16:40:26;15.80;99.90
22984;DHT22;11658;48.908;9.140;2023-03-17T16:42:53;15.90;99.90
22984;DHT22;11658;48.908;9.140;2023-03-17T16:45:20;15.80;99.90
22984;DHT22;11658;48.908;9.140;2023-03-17T16:47:47;15.80;99.90
22984;DHT22;11658;48.908;9.140;2023-03-17T16:53:35;15.70;99.90
22984;DHT22;11658;48.908;9.140;2023-03-17T16:56:01;15.60;99.90
22984;DHT22;11658;48.908;9.140;2023-03-17T16:58:32;15.50;99.90
22984;DHT22;11658;48.908;9.140;2023-03-17T17:01:00;15.50;99.90
22984;DHT22;11658;48.908;9.140;2023-03-17T17:03:28;15.40;99.90
22984;DHT22;11658;48.908;9.140;2023-03-17T17:05:54;15.40;99.90
22984;DHT22;11658;48.908;9.140;2023-03-17T17:08:20;15.30;99.90
22984;DHT22;11658;48.908;9.140;2023-03-17T17:10:46;15.40;99.90
22984;DHT22;11658;48.908;9.140;2023-03-17T17:13:12;15.30;99.90
22984;DHT22;11658;48.908;9.140;2023-03-17T17:15:38;15.20;99.90
22984;DHT22;11658;48.908;9.140;2023-03-17T17:18:18;15.10;99.90
22984;DHT22;11658;48.908;9.140;2023-03-17T17:20:47;15.00;99.90
22984;DHT22;11658;48.908;9.140;2023-03-17T17:23:16;15.00;99.90
22984;DHT22;11658;48.908;9.140;2023-03-17T17:25:42;14.90;99.90
22984;DHT22;11658;48.908;9.140;2023-03-17T17:28:08;14.90;99.90
22984;DHT22;11658;48.908;9.140;2023-03-17T17:30:34;14.60;99.90
22984;DHT22;11658;48.908;9.140;2023-03-17T17:33:00;14.60;99.90
22984;DHT22;11658;48.908;9.140;2023-03-17T17:35:28;14.50;99.90
22984;DHT22;11658;48.908;9.140;2023-03-17T17:37:54;14.40;99.90
22984;DHT22;11658;48.908;9.140;2023-03-17T17:40:22;14.40;99.90
22984;DHT22;11658;48.908;9.140;2023-03-17T17:42:51;14.30;99.90
22984;DHT22;11658;48.908;9.140;2023-03-17T17:45:17;14.20;99.90
22984;DHT22;11658;48.908;9.140;2023-03-17T17:47:45;14.10;99.90
22984;DHT22;11658;48.908;9.140;2023-03-17T17:50:19;14.00;99.90
22984;DHT22;11658;48.908;9.140;2023-03-17T17:52:45;13.90;99.90
22984;DHT22;11658;48.908;9.140;2023-03-17T17:55:11;13.90;99.90
22984;DHT22;11658;48.908;9.140;2023-03-17T17:57:36;13.80;99.90
22984;DHT22;11658;48.908;9.140;2023-03-17T18:00:03;13.80;99.90
22984;DHT22;11658;48.908;9.140;2023-03-17T18:02:30;13.70;99.90
22984;DHT22;11658;48.908;9.140;2023-03-17T18:04:56;13.70;99.90
22984;DHT22;11658;48.908;9.140;2023-03-17T18:07:22;13.80;99.90
22984;DHT22;11658;48.908;9.140;2023-03-17T18:09:47;13.70;99.90
22984;DHT22;11658;48.908;9.140;2023-03-17T18:12:19;13.70;99.90
22984;DHT22;11658;48.908;9.140;2023-03-17T18:14:47;13.60;99.90
22984;DHT22;11658;48.908;9.140;2023-03-17T18:17:13;13.50;99.90
22984;DHT22;11658;48.908;9.140;2023-03-17T18:19:46;13.40;99.90
22984;DHT22;11658;48.908;9.140;2023-03-17T18:22:12;13.30;99.90
22984;DHT22;11658;48.908;9.140;2023-03-17T18:24:39;13.20;99.90
22984;DHT22;11658;48.908;9.140;2023-03-17T18:27:07;13.10;99.90
22984;DHT22;11658;48.908;9.140;2023-03-17T18:29:33;13.10;99.90
22984;DHT22;11658;48.908;9.140;2023-03-17T18:31:59;13.00;99.90
22984;DHT22;11658;48.908;9.140;2023-03-17T18:34:42;13.00;99.90
22984;DHT22;11658;48.908;9.140;2023-03-17T18:37:12;13.00;99.90
22984;DHT22;11658;48.908;9.140;2023-03-17T18:39:39;13.00;99.90
22984;DHT22;11658;48.908;9.140;2023-03-17T18:42:05;13.00;99.90
22984;DHT22;11658;48.908;9.140;2023-03-17T18:44:31;12.90;99.90
22984;DHT22;11658;48.908;9.140;2023-03-17T18:46:57;12.90;99.90
22984;DHT22;11658;48.908;9.140;2023-03-17T18:49:23;12.90;99.90
22984;DHT22;11658;48.908;9.140;2023-03-17T18:51:52;12.80;99.90
22984;DHT22;11658;48.908;9.140;2023-03-17T18:54:17;12.80;99.90
22984;DHT22;11658;48.908;9.140;2023-03-17T18:56:43;12.70;99.90
22984;DHT22;11658;48.908;9.140;2023-03-17T18:59:09;12.70;99.90
22984;DHT22;11658;48.908;9.140;2023-03-17T19:01:34;12.60;99.90
22984;DHT22;11658;48.908;9.140;2023-03-17T19:04:00;12.60;99.90
22984;DHT22;11658;48.908;9.140;2023-03-17T19:06:26;12.60;99.90
22984;DHT22;11658;48.908;9.140;2023-03-17T19:08:51;12.50;99.90
22984;DHT22;11658;48.908;9.140;2023-03-17T19:11:18;12.50;99.90
22984;DHT22;11658;48.908;9.140;2023-03-17T19:13:45;12.60;99.90
22984;DHT22;11658;48.908;9.140;2023-03-17T19:16:12;12.60;99.90
22984;DHT22;11658;48.908;9.140;2023-03-17T19:18:38;12.70;99.90
22984;DHT22;11658;48.908;9.140;2023-03-17T19:21:05;12.70;99.90
22984;DHT22;11658;48.908;9.140;2023-03-17T19:23:30;12.70;99.90
22984;DHT22;11658;48.908;9.140;2023-03-17T19:25:58;12.60;99.90
22984;DHT22;11658;48.908;9.140;2023-03-17T19:28:24;12.60;99.90
22984;DHT22;11658;48.908;9.140;2023-03-17T19:30:50;12.50;99.90
22984;DHT22;11658;48.908;9.140;2023-03-17T19:33:15;12.40;99.90
22984;DHT22;11658;48.908;9.140;2023-03-17T19:35:42;12.30;99.90
22984;DHT22;11658;48.908;9.140;2023-03-17T19:38:19;12.30;99.90
22984;DHT22;11658;48.908;9.140;2023-03-17T19:40:45;12.40;99.90
22984;DHT22;11658;48.908;9.140;2023-03-17T19:43:11;12.40;99.90
22984;DHT22;11658;48.908;9.140;2023-03-17T19:45:36;12.40;99.90
22984;DHT22;11658;48.908;9.140;2023-03-17T19:48:02;12.30;99.90
22984;DHT22;11658;48.908;9.140;2023-03-17T19:50:29;12.30;99.90
22984;DHT22;11658;48.908;9.140;2023-03-17T19:52:55;12.30;99.90
22984;DHT22;11658;48.908;9.140;2023-03-17T19:55:22;12.20;99.90
22984;DHT22;11658;48.908;9.140;2023-03-17T19:57:50;12.10;99.90
22984;DHT22;11658;48.908;9.140;2023-03-17T20:00:16;12.00;99.90
22984;DHT22;11658;48.908;9.140;2023-03-17T20:02:42;12.00;99.90
22984;DHT22;11658;48.908;9.140;2023-03-17T20:05:08;12.00;99.90
22984;DHT22;11658;48.908;9.140;2023-03-17T20:07:34;12.00;99.90
22984;DHT22;11658;48.908;9.140;2023-03-17T20:10:00;12.00;99.90
22984;DHT22;11658;48.908;9.140;2023-03-17T20:12:29;11.90;99.90
22984;DHT22;11658;48.908;9.140;2023-03-17T20:14:54;11.90;99.90
22984;DHT22;11658;48.908;9.140;2023-03-17T20:17:20;11.80;99.90
22984;DHT22;11658;48.908;9.140;2023-03-17T20:19:46;11.80;99.90
22984;DHT22;11658;48.908;9.140;2023-03-17T20:22:12;11.70;99.90
22984;DHT22;11658;48.908;9.140;2023-03-17T20:24:37;11.60;99.90
22984;DHT22;11658;48.908;9.140;2023-03-17T20:27:04;11.50;99.90
22984;DHT22;11658;48.908;9.140;2023-03-17T20:29:31;11.50;99.90
22984;DHT22;11658;48.908;9.140;2023-03-17T20:31:57;11.40;99.90
22984;DHT22;11658;48.908;9.140;2023-03-17T20:34:23;11.20;99.90
22984;DHT22;11658;48.908;9.140;2023-03-17T20:36:49;11.20;99.90
22984;DHT22;11658;48.908;9.140;2023-03-17T20:39:15;11.30;99.90
22984;DHT22;11658;48.908;9.140;2023-03-17T20:41:48;11.30;99.90
22984;DHT22;11658;48.908;9.140;2023-03-17T20:44:14;11.30;99.90
22984;DHT22;11658;48.908;9.140;2023-03-17T20:46:40;11.40;99.90
22984;DHT22;11658;48.908;9.140;2023-03-17T20:49:07;11.50;99.90
22984;DHT22;11658;48.908;9.140;2023-03-17T20:51:34;11.60;99.90
22984;DHT22;11658;48.908;9.140;2023-03-17T20:54:00;11.50;99.90
22984;DHT22;11658;48.908;9.140;2023-03-17T20:56:28;11.50;99.90
22984;DHT22;11658;48.908;9.140;2023-03-17T20:58:54;11.30;99.90
22984;DHT22;11658;48.908;9.140;2023-03-17T21:01:23;11.30;99.90
22984;DHT22;11658;48.908;9.140;2023-03-17T21:03:49;11.40;99.90
22984;DHT22;11658;48.908;9.140;2023-03-17T21:06:16;11.40;99.90
22984;DHT22;11658;48.908;9.140;2023-03-17T21:08:42;11.60;99.90
22984;DHT22;11658;48.908;9.140;2023-03-17T21:11:16;11.60;99.90
22984;DHT22;11658;48.908;9.140;2023-03-17T21:13:41;11.60;99.90
22984;DHT22;11658;48.908;9.140;2023-03-17T21:16:17;11.50;99.90
22984;DHT22;11658;48.908;9.140;2023-03-17T21:18:44;11.30;99.90
22984;DHT22;11658;48.908;9.140;2023-03-17T21:21:09;11.20;99.90
22984;DHT22;11658;48.908;9.140;2023-03-17T21:23:36;11.30;99.90
22984;DHT22;11658;48.908;9.140;2023-03-17T21:26:02;11.30;99.90
22984;DHT22;11658;48.908;9.140;2023-03-17T21:28:28;11.30;99.90
22984;DHT22;11658;48.908;9.140;2023-03-17T21:30:55;11.40;99.90
22984;DHT22;11658;48.908;9.140;2023-03-17T21:33:21;11.40;99.90
22984;DHT22;11658;48.908;9.140;2023-03-17T21:35:46;11.40;99.90